Aérodrome :
LOGIN :

S'inscrire | Disclaimer

   EN    FR    IT 

 










Légende :    VFR   VFR Marginal   IFR   IFR Intensif   IFR Très Intensif
Visi : 
Plafond : 
>= 8 km
>= 3000ft
5 à 8 km
1000 à 3000 ft
1500m à 5 km
500 à 1000 ft
800 à 1500m
200 à 500 ft
< 800m
< 200 ft
Symboles :   Orages  Brouillard  Fortes neiges  Fortes précipitations  Vent > 20 kt
SIGMETs :   Divers  Orages  Givrage  Turbulence  Onde Orograph.  Cendres Volcan.






- Altitude de l'aérodrome : 29 ft


LIRM - Grazzanise Caserta

DERNIER METAR :
  • 201355Z 28006KT 9999 SCT020 SCT030 15/11 Q1013

METARs EXPIRÉS :
  • 201255Z 22006KT 9999 FEW020 SCT030 15/12 Q1013 RMK BKN VIS MIN 9999 WIND THR06 21006KT BLU
  • 201155Z 22005KT 7000 -RA FEW020 SCT030 BKN060 13/11 Q1013 RMK BKN VIS MIN 7000 WIND THR06 23005KT WHT

TAF TAF LIRM
Valide du 20 à 12h jusqu'au 20 à 21h UTC


201100Z 2012/2021 24006KT 8000 SCT020 BKN030
TEMPO 2012/2018 5000 RA SCT020 FEW025CB BKN030



MET'MAP, la Météo Aéronautique d'un coup d'oeil ! - Copyright ORBIFLY Décembre 2007 - Disclaimer

ORBIFLY MET'MAP TEAM :

Programmation & Développement : Alexandra Zaïnal
Conception & Développement : Baudouin d'Aumeries
Co-Programmation & Développement : Marc-Olivier Méhu
Soutien technique & logistique : Manuel Goepfert

Contact : metmap@orbifly.com




SOURCES & CREDITS :

   NOAA